sensor_id;sensor_type;location;lat;lon;timestamp;P1;durP1;ratioP1;P2;durP2;ratioP2
5678;SDS011;2862;52.560;13.566;2024-01-30T00:01:55;23.70;;;5.60;;
5678;SDS011;2862;52.560;13.566;2024-01-30T00:11:59;24.70;;;5.47;;
5678;SDS011;2862;52.560;13.566;2024-01-30T00:22:02;22.27;;;5.17;;
5678;SDS011;2862;52.560;13.566;2024-01-30T00:32:07;23.37;;;4.00;;
5678;SDS011;2862;52.560;13.566;2024-01-30T00:42:10;25.60;;;4.77;;
5678;SDS011;2862;52.560;13.566;2024-01-30T00:52:15;25.67;;;5.40;;
5678;SDS011;2862;52.560;13.566;2024-01-30T01:02:18;25.13;;;5.00;;
5678;SDS011;2862;52.560;13.566;2024-01-30T01:12:22;20.60;;;4.50;;
5678;SDS011;2862;52.560;13.566;2024-01-30T01:22:25;26.17;;;6.17;;
5678;SDS011;2862;52.560;13.566;2024-01-30T01:32:30;21.40;;;4.40;;
5678;SDS011;2862;52.560;13.566;2024-01-30T01:42:33;22.10;;;5.13;;
5678;SDS011;2862;52.560;13.566;2024-01-30T01:52:38;24.90;;;5.40;;
5678;SDS011;2862;52.560;13.566;2024-01-30T02:02:43;20.93;;;4.27;;
5678;SDS011;2862;52.560;13.566;2024-01-30T02:12:49;24.43;;;5.50;;
5678;SDS011;2862;52.560;13.566;2024-01-30T02:22:54;27.37;;;5.57;;
5678;SDS011;2862;52.560;13.566;2024-01-30T02:32:58;22.23;;;5.27;;
5678;SDS011;2862;52.560;13.566;2024-01-30T02:43:03;24.10;;;6.13;;
5678;SDS011;2862;52.560;13.566;2024-01-30T02:53:07;22.30;;;5.90;;
5678;SDS011;2862;52.560;13.566;2024-01-30T03:03:11;24.67;;;6.13;;
5678;SDS011;2862;52.560;13.566;2024-01-30T03:13:14;27.97;;;6.03;;
5678;SDS011;2862;52.560;13.566;2024-01-30T03:23:20;25.13;;;5.93;;
5678;SDS011;2862;52.560;13.566;2024-01-30T03:33:23;24.50;;;6.00;;
5678;SDS011;2862;52.560;13.566;2024-01-30T03:43:27;24.60;;;6.20;;
5678;SDS011;2862;52.560;13.566;2024-01-30T03:53:30;28.13;;;6.27;;
5678;SDS011;2862;52.560;13.566;2024-01-30T04:03:34;23.80;;;6.90;;
5678;SDS011;2862;52.560;13.566;2024-01-30T04:13:37;26.93;;;7.50;;
5678;SDS011;2862;52.560;13.566;2024-01-30T04:23:41;27.57;;;7.07;;
5678;SDS011;2862;52.560;13.566;2024-01-30T04:33:44;26.97;;;7.23;;
5678;SDS011;2862;52.560;13.566;2024-01-30T04:43:49;21.70;;;5.90;;
5678;SDS011;2862;52.560;13.566;2024-01-30T04:53:52;23.17;;;6.90;;
5678;SDS011;2862;52.560;13.566;2024-01-30T05:03:56;27.90;;;7.60;;
5678;SDS011;2862;52.560;13.566;2024-01-30T05:13:59;28.20;;;7.60;;
5678;SDS011;2862;52.560;13.566;2024-01-30T05:24:03;31.87;;;7.40;;
5678;SDS011;2862;52.560;13.566;2024-01-30T05:34:07;23.60;;;6.47;;
5678;SDS011;2862;52.560;13.566;2024-01-30T05:44:12;32.40;;;6.93;;
5678;SDS011;2862;52.560;13.566;2024-01-30T05:54:14;30.77;;;8.33;;
5678;SDS011;2862;52.560;13.566;2024-01-30T06:04:19;27.30;;;7.00;;
5678;SDS011;2862;52.560;13.566;2024-01-30T06:14:22;25.17;;;6.87;;
5678;SDS011;2862;52.560;13.566;2024-01-30T06:24:26;25.97;;;7.57;;
5678;SDS011;2862;52.560;13.566;2024-01-30T06:34:30;26.97;;;7.60;;
5678;SDS011;2862;52.560;13.566;2024-01-30T06:44:34;36.83;;;10.20;;
5678;SDS011;2862;52.560;13.566;2024-01-30T06:54:37;30.60;;;8.00;;
5678;SDS011;2862;52.560;13.566;2024-01-30T07:04:42;26.57;;;7.57;;
5678;SDS011;2862;52.560;13.566;2024-01-30T07:14:46;31.20;;;8.87;;
5678;SDS011;2862;52.560;13.566;2024-01-30T07:24:51;25.40;;;6.80;;
5678;SDS011;2862;52.560;13.566;2024-01-30T07:34:54;26.33;;;7.90;;
5678;SDS011;2862;52.560;13.566;2024-01-30T07:45:00;29.13;;;7.27;;
5678;SDS011;2862;52.560;13.566;2024-01-30T07:55:04;23.60;;;7.27;;
5678;SDS011;2862;52.560;13.566;2024-01-30T08:05:10;28.43;;;7.33;;
5678;SDS011;2862;52.560;13.566;2024-01-30T08:15:13;26.53;;;7.60;;
5678;SDS011;2862;52.560;13.566;2024-01-30T08:25:17;27.63;;;7.90;;
5678;SDS011;2862;52.560;13.566;2024-01-30T08:35:20;30.40;;;8.80;;
5678;SDS011;2862;52.560;13.566;2024-01-30T08:45:24;25.30;;;8.07;;
5678;SDS011;2862;52.560;13.566;2024-01-30T08:55:27;26.70;;;8.53;;
5678;SDS011;2862;52.560;13.566;2024-01-30T09:05:31;27.27;;;7.53;;
5678;SDS011;2862;52.560;13.566;2024-01-30T09:15:34;30.57;;;7.60;;
5678;SDS011;2862;52.560;13.566;2024-01-30T09:25:38;26.80;;;7.63;;
5678;SDS011;2862;52.560;13.566;2024-01-30T09:35:41;29.47;;;8.40;;
5678;SDS011;2862;52.560;13.566;2024-01-30T09:45:44;32.33;;;8.53;;
5678;SDS011;2862;52.560;13.566;2024-01-30T09:55:49;30.67;;;8.57;;
5678;SDS011;2862;52.560;13.566;2024-01-30T10:05:54;27.37;;;7.27;;
5678;SDS011;2862;52.560;13.566;2024-01-30T10:15:58;29.73;;;8.87;;
5678;SDS011;2862;52.560;13.566;2024-01-30T10:26:06;30.90;;;10.40;;
5678;SDS011;2862;52.560;13.566;2024-01-30T10:36:09;33.13;;;7.80;;
5678;SDS011;2862;52.560;13.566;2024-01-30T10:46:19;35.47;;;8.40;;
5678;SDS011;2862;52.560;13.566;2024-01-30T10:56:23;25.30;;;7.20;;
5678;SDS011;2862;52.560;13.566;2024-01-30T11:06:28;24.40;;;6.30;;
5678;SDS011;2862;52.560;13.566;2024-01-30T11:16:31;25.87;;;6.63;;
5678;SDS011;2862;52.560;13.566;2024-01-30T11:26:36;26.97;;;5.50;;
5678;SDS011;2862;52.560;13.566;2024-01-30T11:36:41;21.10;;;5.27;;
5678;SDS011;2862;52.560;13.566;2024-01-30T11:46:49;22.90;;;4.63;;
5678;SDS011;2862;52.560;13.566;2024-01-30T11:56:54;22.67;;;4.60;;
5678;SDS011;2862;52.560;13.566;2024-01-30T12:06:58;23.03;;;4.17;;
5678;SDS011;2862;52.560;13.566;2024-01-30T12:17:04;31.50;;;6.20;;
5678;SDS011;2862;52.560;13.566;2024-01-30T12:27:09;20.73;;;4.37;;
5678;SDS011;2862;52.560;13.566;2024-01-30T12:37:14;22.33;;;4.67;;
5678;SDS011;2862;52.560;13.566;2024-01-30T12:47:24;23.97;;;5.70;;
5678;SDS011;2862;52.560;13.566;2024-01-30T12:57:28;24.43;;;6.80;;
5678;SDS011;2862;52.560;13.566;2024-01-30T13:07:35;25.10;;;5.50;;
5678;SDS011;2862;52.560;13.566;2024-01-30T13:17:38;24.63;;;5.47;;
5678;SDS011;2862;52.560;13.566;2024-01-30T13:27:42;26.70;;;5.70;;
5678;SDS011;2862;52.560;13.566;2024-01-30T13:37:45;24.80;;;5.00;;
5678;SDS011;2862;52.560;13.566;2024-01-30T13:47:53;25.63;;;5.97;;
5678;SDS011;2862;52.560;13.566;2024-01-30T13:57:58;24.83;;;5.47;;
5678;SDS011;2862;52.560;13.566;2024-01-30T14:08:02;32.73;;;7.20;;
5678;SDS011;2862;52.560;13.566;2024-01-30T14:18:05;26.30;;;5.60;;
5678;SDS011;2862;52.560;13.566;2024-01-30T14:28:11;23.40;;;5.93;;
5678;SDS011;2862;52.560;13.566;2024-01-30T14:38:14;28.03;;;7.00;;
5678;SDS011;2862;52.560;13.566;2024-01-30T14:48:18;27.43;;;7.20;;
5678;SDS011;2862;52.560;13.566;2024-01-30T14:58:21;33.00;;;6.60;;
5678;SDS011;2862;52.560;13.566;2024-01-30T15:08:26;24.63;;;7.23;;
5678;SDS011;2862;52.560;13.566;2024-01-30T15:18:29;33.10;;;6.97;;
5678;SDS011;2862;52.560;13.566;2024-01-30T15:28:35;30.90;;;6.17;;
5678;SDS011;2862;52.560;13.566;2024-01-30T15:38:38;31.57;;;7.47;;
5678;SDS011;2862;52.560;13.566;2024-01-30T15:48:46;27.03;;;6.60;;
5678;SDS011;2862;52.560;13.566;2024-01-30T15:58:49;26.43;;;7.13;;
5678;SDS011;2862;52.560;13.566;2024-01-30T16:08:55;26.80;;;8.07;;
5678;SDS011;2862;52.560;13.566;2024-01-30T16:18:58;27.07;;;7.80;;
5678;SDS011;2862;52.560;13.566;2024-01-30T16:39:07;34.90;;;8.33;;
5678;SDS011;2862;52.560;13.566;2024-01-30T16:49:13;30.73;;;9.03;;
5678;SDS011;2862;52.560;13.566;2024-01-30T16:59:19;29.87;;;7.50;;
5678;SDS011;2862;52.560;13.566;2024-01-30T17:09:22;27.30;;;7.57;;
5678;SDS011;2862;52.560;13.566;2024-01-30T17:19:26;31.03;;;8.70;;
5678;SDS011;2862;52.560;13.566;2024-01-30T17:29:29;33.53;;;10.07;;
5678;SDS011;2862;52.560;13.566;2024-01-30T17:39:34;28.13;;;8.50;;
5678;SDS011;2862;52.560;13.566;2024-01-30T17:49:37;27.70;;;9.47;;
5678;SDS011;2862;52.560;13.566;2024-01-30T17:59:43;34.57;;;9.20;;
5678;SDS011;2862;52.560;13.566;2024-01-30T18:09:50;28.60;;;9.97;;
5678;SDS011;2862;52.560;13.566;2024-01-30T18:19:54;28.63;;;8.90;;
5678;SDS011;2862;52.560;13.566;2024-01-30T18:29:57;39.27;;;12.37;;
5678;SDS011;2862;52.560;13.566;2024-01-30T18:40:05;32.07;;;10.90;;
5678;SDS011;2862;52.560;13.566;2024-01-30T18:50:12;25.30;;;9.10;;
5678;SDS011;2862;52.560;13.566;2024-01-30T19:00:17;28.17;;;9.97;;
5678;SDS011;2862;52.560;13.566;2024-01-30T19:10:20;29.30;;;8.43;;
5678;SDS011;2862;52.560;13.566;2024-01-30T19:20:27;29.40;;;8.80;;
5678;SDS011;2862;52.560;13.566;2024-01-30T19:30:42;31.57;;;8.97;;
5678;SDS011;2862;52.560;13.566;2024-01-30T19:40:46;27.13;;;7.30;;
5678;SDS011;2862;52.560;13.566;2024-01-30T19:50:49;28.13;;;8.67;;
5678;SDS011;2862;52.560;13.566;2024-01-30T20:00:53;26.60;;;8.00;;
5678;SDS011;2862;52.560;13.566;2024-01-30T20:11:00;30.17;;;8.57;;
5678;SDS011;2862;52.560;13.566;2024-01-30T20:21:06;28.37;;;9.10;;
5678;SDS011;2862;52.560;13.566;2024-01-30T20:31:11;29.30;;;8.83;;
5678;SDS011;2862;52.560;13.566;2024-01-30T20:41:15;29.53;;;7.83;;
5678;SDS011;2862;52.560;13.566;2024-01-30T20:51:18;33.97;;;9.00;;
5678;SDS011;2862;52.560;13.566;2024-01-30T21:01:22;32.33;;;9.33;;
5678;SDS011;2862;52.560;13.566;2024-01-30T21:11:26;31.50;;;9.20;;
5678;SDS011;2862;52.560;13.566;2024-01-30T21:21:30;28.20;;;7.80;;
5678;SDS011;2862;52.560;13.566;2024-01-30T21:31:33;27.50;;;8.93;;
5678;SDS011;2862;52.560;13.566;2024-01-30T21:41:37;24.90;;;8.00;;
5678;SDS011;2862;52.560;13.566;2024-01-30T21:51:41;29.47;;;8.53;;
5678;SDS011;2862;52.560;13.566;2024-01-30T22:01:45;28.33;;;8.80;;
5678;SDS011;2862;52.560;13.566;2024-01-30T22:11:48;27.20;;;8.07;;
5678;SDS011;2862;52.560;13.566;2024-01-30T22:21:52;29.30;;;8.83;;
5678;SDS011;2862;52.560;13.566;2024-01-30T22:31:55;22.67;;;7.40;;
5678;SDS011;2862;52.560;13.566;2024-01-30T22:42:00;26.53;;;9.50;;
5678;SDS011;2862;52.560;13.566;2024-01-30T22:52:03;31.40;;;10.03;;
5678;SDS011;2862;52.560;13.566;2024-01-30T23:02:07;30.60;;;9.70;;
5678;SDS011;2862;52.560;13.566;2024-01-30T23:12:11;29.67;;;9.50;;
5678;SDS011;2862;52.560;13.566;2024-01-30T23:22:15;30.43;;;8.40;;
5678;SDS011;2862;52.560;13.566;2024-01-30T23:32:18;29.97;;;9.57;;
5678;SDS011;2862;52.560;13.566;2024-01-30T23:42:24;29.77;;;9.70;;
5678;SDS011;2862;52.560;13.566;2024-01-30T23:52:29;24.10;;;7.30;;
